Maribor, Slovenia

5:50 AM CEST on September 05, 2015 (GMT +0200)
Maribor | | Change Station
CLOSE
Current Station
Airport
Location: Maribor,
Elevation: 869 ft
Nearby Weather Stations

Elev 869 ft 46.48 °N, 15.68 °E | Updated 20 minutes ago

Light Rain
Light Rain
59 °F
Feels Like 59 °F
N
0
Wind Variable Wind from North

Today
High -- | Low -- °F
--% Chance of Precip.
Yesterday
High -- | Low -- °F
Precip. -- in
6:21 AM 7:29 PM
Waning Gibbous, 53% visible
Pressure 29.92 in
Visibility 4.3 miles
Clouds Mostly Cloudy 600 ft
Mostly Cloudy 1800 ft
Mostly Cloudy 6800 ft
Dew Point 57 °F
Humidity 94%
Rainfall 0.00 in
Snow Depth Not available.
UV 0 out of 12
Pollen Not available.
Air Quality Not available.
Flu Activity Not available.
METAR LJMB 050330Z AUTO 00000KT 7000 -RA BKN006/// BKN018/// BKN068/// 15/14 Q1013
Pressure 29.92 in
Visibility 4.3 miles
Clouds Mostly Cloudy 600 ft
Mostly Cloudy 1800 ft
Mostly Cloudy 6800 ft
Dew Point 57 °F
Humidity 94%
Rainfall 0.00 in
Snow Depth Not available.
UV 0 out of 12
Pollen Not available.
Air Quality Not available.
Flu Activity Not available.
METAR LJMB 050330Z AUTO 00000KT 7000 -RA BKN006/// BKN018/// BKN068/// 15/14 Q1013

10-Day Weather Forecast

×

Almanac

Astronomy

Sep. 05, 2015 Rise Set
Actual Time
Civil Twilight
Nautical Twilight
Astronomical Twilight
Moon
Length of Visible Light
Length of Day
Tomorrow will be .
, % of the Moon is Illuminated

Today's Extremes

Country Highs Country Lows

Community

WunderPhotos

Upload Photos

1,852,408 photos uploaded!

WunderBlogs® & News

Nearby

Air Quality

  Air Quality AQ Index Pollutant
Not available.

Snow Depth

Station Depth Elevation

Earthquake Activity

City Distance Mag. Time & Date
Minimum magnitude displayed is 2.5.

Coastal Water Temperatures

Place Temperature

Stations

Nearby Weather Stations

Station Location Temp. Windchill Dew Point Humidity Wind Precip. Elev Updated Type